Flight Track Log - Related Links

Times and Time Zones

All times are in EST time to prevent confusion due to time zone crossing. See the EJA929 flight status page for this flight to view local times or setup timezone preferences in your user account.

Time Position Orientation Groundspeed Altitude Reporting Facility
EST Latitude Longitude Course Direction KTS MPH feet Rate Location/Type
Fri 04:17:35 PM 35.9008 -78.7742 35° Northeast 231 266 1,700  Level Washington Center
Fri 04:18:37 PM 35.9436 -78.7375 35° Northeast 212 244 4,000 4,029 Climbing Washington Center
Fri 04:19:52 PM 36.0428 -78.7028 16° North 316 364 10,900 3,706 Climbing Washington Center
Fri 04:20:53 PM 36.1206 -78.6803 13° North 295 339 12,400 1,475 Climbing Washington Center
Fri 04:21:54 PM 36.2044 -78.6578 12° North 312 359 13,900 1,686 Climbing Washington Center
Fri 04:22:54 PM 36.3000 -78.5969 27° Northeast 345 397 15,800 1,678 Climbing Washington Center
Fri 04:23:52 PM 36.3789 -78.5228 37° Northeast 382 440 17,200 1,462 Climbing Washington Center
Fri 04:24:53 PM 36.4731 -78.4256 40° Northeast 394 453 18,700 1,537 Climbing Washington Center
Fri 04:25:53 PM 36.5650 -78.3358 38° Northeast 406 467 20,300 1,736 Climbing Washington Center
Fri 04:26:54 PM 36.6586 -78.2458 38° Northeast 411 473 22,200 1,835 Climbing Washington Center
Fri 04:27:54 PM 36.7547 -78.1481 39° Northeast 424 488 24,000 1,508 Climbing Washington Center
Fri 04:29:00 PM 36.8607 -78.0470 28° Northeast  Level Estimated
Fri 04:29:53 PM 36.9550 -77.9492 28° Northeast 455 524 26,700  Level Washington Center
Fri 04:30:54 PM 37.0656 -77.8381 39° Northeast 480 552 27,500 885 Climbing Washington Center
Fri 04:31:55 PM 37.1781 -77.7267 38° Northeast 495 570 28,500 1,271 Climbing Washington Center
Fri 04:32:52 PM 37.2906 -77.6125 39° Northeast 506 582 30,000 1,538 Climbing Washington Center
Fri 04:33:52 PM 37.4031 -77.5003 38° Northeast 516 594 31,500 1,339 Climbing Washington Center
Fri 04:34:53 PM 37.5194 -77.3853 38° Northeast 516 594 32,700 744 Climbing Washington Center
Fri 04:35:53 PM 37.6361 -77.2650 39° Northeast 528 608 33,000 149 Climbing Washington Center
Fri 04:36:54 PM 37.7567 -77.1414 39° Northeast 539 620 33,000  Level Washington Center
Fri 04:37:52 PM 37.8747 -77.0203 39° Northeast 545 627 33,000  Level Washington Center
Fri 04:38:53 PM 37.9908 -76.8986 40° Northeast 545 627 33,000  Level Washington Center
Fri 04:39:54 PM 38.1111 -76.7767 39° Northeast 545 627 33,000  Level Washington Center
Fri 04:40:52 PM 38.2269 -76.6594 38° Northeast 545 627 33,000  Level Washington Center
Fri 04:41:52 PM 38.3425 -76.5394 39° Northeast 539 620 33,000  Level Washington Center
Fri 04:42:53 PM 38.4497 -76.4294 39° Northeast 539 620 33,000  Level Washington Center
Fri 04:43:53 PM 38.5778 -76.2928 40° Northeast 544 626 33,000  Level Washington Center
Fri 04:44:54 PM 38.6867 -76.1767 40° Northeast 554 638 33,000 -248 Level Washington Center
Fri 04:45:54 PM 38.8039 -76.0578 38° Northeast 548 631 32,500 -1,150 Descending Washington Center
Fri 04:46:54 PM 38.9192 -75.9331 40° Northeast 541 623 30,700 -1,780 Descending Washington Center
Fri 04:47:52 PM 39.0319 -75.8133 39° Northeast 535 616 29,000 -857 Descending Washington Center
Fri 04:48:53 PM 39.1425 -75.6961 39° Northeast 520 598 29,000  Level Washington Center
Fri 04:49:53 PM 39.2531 -75.5756 40° Northeast 515 593 29,000  Level Washington Center
Fri 04:50:54 PM 39.3633 -75.4547 40° Northeast 515 593 29,000 -744 Level Washington Center
Fri 04:51:54 PM 39.4717 -75.3389 40° Northeast 510 587 27,500 -1,967 Descending Washington Center
Fri 04:53:57 PM 39.6778 -75.0972 42° Northeast 507 583 23,000 -1,475 Descending New York Center
Fri 04:54:57 PM 39.7219 -74.9083 73° East 482 555 23,000 -149 Level New York Center
Fri 04:55:58 PM 39.7531 -74.7347 77° East 477 549 22,700 -706 Descending New York Center
Fri 04:56:56 PM 39.7900 -74.5639 74° East 483 556 21,600 -857 Descending New York Center
Fri 04:57:57 PM 39.8369 -74.3989 70° East 488 562 21,000 -295 Descending New York Center
Fri 04:58:58 PM 39.9100 -74.2592 56° Northeast 470 541 21,000  Level New York Center
Fri 04:59:55 PM 39.9911 -74.1197 53° Northeast 470 541 21,000  Level New York Center
Fri 05:01:39 PM 40.1164 -73.8981 53° Northeast 482 555 21,000  Level Boston Center
Fri 05:02:40 PM 40.1958 -73.7592 53° Northeast 480 552 21,000 -738 Level Boston Center
Fri 05:03:41 PM 40.2708 -73.6228 54° Northeast 470 541 19,500 -1,983 Descending Boston Center
Fri 05:04:41 PM 40.3628 -73.4711 51° Northeast 457 526 17,000 -1,240 Descending Boston Center
Fri 05:05:42 PM 40.4672 -73.4214 20° North 416 479 17,000  Level Boston Center
Fri 05:06:45 PM 40.5761 -73.3825 15° North 405 466 17,000  Level Boston Center
Fri 05:07:42 PM 40.6833 -73.3333 19° North 394 453 17,000 -872 Level New York TRACON
Fri 05:08:42 PM 40.7833 -73.3000 14° North 344 396 15,300 -1,571 Descending New York TRACON
Fri 05:09:48 PM 40.8333 -73.2000 57° Northeast 315 362 13,700 -1,381 Descending New York TRACON
Fri 05:10:48 PM 40.8833 -73.1167 52° Northeast 340 391 12,400 -1,238 Descending New York TRACON
Fri 05:11:54 PM 40.9333 -73.0167 56° Northeast 301 346 11,100 -1,250 Descending New York TRACON
Fri 05:12:48 PM 41.0000 -72.9667 30° Northeast 244 281 9,900 -1,526 Descending New York TRACON
Fri 05:13:48 PM 41.0667 -72.9667 360° North 236 272 8,200 -1,850 Descending New York TRACON
Fri 05:14:48 PM 41.1333 -72.9667 360° North 244 281 6,200 -1,900 Descending New York TRACON
Fri 05:15:48 PM 41.1833 -72.9833 346° North 249 287 4,400 -1,050 Descending New York TRACON
Fri 05:16:48 PM 41.1833 -73.0667 270° West 228 262 4,100 -143 Descending New York TRACON
Fri 05:17:54 PM 41.1833 -73.1667 270° West 223 257 4,100  Level New York TRACON
Fri 05:18:54 PM 41.1833 -73.2500 270° West 227 261 4,100  Level New York TRACON
Fri 05:19:54 PM 41.1833 -73.3333 270° West 230 265 4,100 -350 Level New York TRACON
Fri 05:20:54 PM 41.1333 -73.4000 225° Southwest 250 288 3,400 -650 Descending New York TRACON
Fri 05:21:54 PM 41.0833 -73.4500 217° Southwest 213 245 2,800 -579 Descending New York TRACON
Fri 05:22:48 PM 41.0500 -73.4833 217° Southwest 196 226 2,300 -350 Descending New York TRACON
Fri 05:23:54 PM 41.0000 -73.5333 217° Southwest 214 246 2,100 -95 Descending New York TRACON
Fri 05:24:54 PM 40.9500 -73.5833 217° Southwest 172 198 2,100  Level New York TRACON
Fri 05:25:54 PM 40.9667 -73.6333 294° West 151 174 2,100 -50 Level New York TRACON
Fri 05:26:54 PM 41.0000 -73.6500 339° North 132 152 2,000 -381 Descending New York TRACON
Fri 05:28:00 PM 41.0333 -73.6833 323° Northwest 110 127 1,300 -667 Descending New York TRACON
Fri 05:29:00 PM 41.0500 -73.7000 323° Northwest 117 135 600 -700 Descending New York TRACON

Login

Don't have an account? Register now (free) for customized features, flight alerts, and more!